Time;durP1;ratioP1;P1;durP2;ratioP2;P2;SDS_P1;SDS_P2;PMS_P1;PMS_P2;Temp;Humidity;BMP_temperature;BMP_pressure;BME280_temperature;BME280_humidity;BME280_pressure;Samples;Min_cycle;Max_cycle;Signal;HPM_P1;HPM_P2
2022/11/29 00:00:09;;;;;;;;;;;;;;;;;;5062534;28;19930;-88
2022/11/29 00:02:42;;;;;;;25.15;9.52;;;;;;;;;;5067906;28;19920;-91
2022/11/29 00:05:09;;;;;;;;;;;;;;;;;;5060031;28;20060;-90
2022/11/29 00:07:43;;;;;;;25.63;9.73;;;;;;;;;;5064340;28;19928;-91
2022/11/29 00:10:11;;;;;;;26.63;10.23;;;;;;;;;;5068258;28;20052;-89
2022/11/29 00:12:39;;;;;;;25.77;11.57;;;;;;;;;;5059195;28;20049;-88
2022/11/29 00:15:12;;;;;;;25.98;10.70;;;;;;;;;;5057711;28;20048;-89
2022/11/29 00:17:45;;;;;;;25.05;10.93;;;;;;;;;;5077230;28;20052;-90
2022/11/29 00:20:12;;;;;;;;;;;;;;;;;;5061063;28;20059;-89
2022/11/29 00:22:40;;;;;;;20.15;9.43;;;;;;;;;;5059046;28;20288;-89
2022/11/29 00:25:14;;;;;;;26.17;11.23;;;;;;;;;;5061002;28;20053;-90
2022/11/29 00:27:42;;;;;;;22.35;11.23;;;;;;;;;;5067571;28;20416;-89
2022/11/29 00:30:15;;;;;;;20.40;10.40;;;;;;;;;;5062134;28;20505;-89
2022/11/29 00:32:48;;;;;;;25.40;10.43;;;;;;;;;;5060090;28;20056;-88
2022/11/29 00:35:15;;;;;;;;;;;;;;;;;;5065255;28;20063;-90
2022/11/29 00:37:43;;;;;;;;;;;;;;;;;;5058874;28;19920;-90
2022/11/29 00:40:17;;;;;;;20.55;9.13;;;;;;;;;;5060321;28;19927;-90
2022/11/29 00:42:49;;;;;;;;;;;;;;;;;;5068469;28;20067;-90
2022/11/29 00:45:17;;;;;;;;;;;;;;;;;;5060544;28;20087;-90
2022/11/29 00:47:44;;;;;;;;;;;;;;;;;;5058526;28;19925;-89
2022/11/29 00:50:12;;;;;;;;;;;;;;;;;;5063500;28;19921;-90
2022/11/29 00:52:40;;;;;;;;;;;;;;;;;;5061946;28;19925;-89
2022/11/29 00:55:12;;;;;;;;;;;;;;;;;;5068624;28;19920;-90
2022/11/29 00:57:40;;;;;;;;;;;;;;;;;;5067696;28;19925;-89
2022/11/29 01:00:07;;;;;;;;;;;;;;;;;;5057976;28;19992;-90
2022/11/29 01:02:35;;;;;;;;;;;;;;;;;;5062814;28;19924;-89
2022/11/29 01:05:07;;;;;;;;;;;;;;;;;;5064831;28;19928;-89
2022/11/29 01:07:40;;;;;;;;;;;;;;;;;;5067467;28;19924;-89
2022/11/29 01:10:07;;;;;;;;;;;;;;;;;;5064585;28;20450;-90
2022/11/29 01:12:35;;;;;;;;;;;;;;;;;;5060294;28;19943;-90
2022/11/29 01:15:02;;;;;;;;;;;;;;;;;;5061069;28;19921;-90
2022/11/29 01:17:30;;;;;;;;;;;;;;;;;;5064660;28;19924;-88
2022/11/29 01:19:57;;;;;;;;;;;;;;;;;;5061835;28;19920;-89
2022/11/29 01:22:30;;;;;;;;;;;;;;;;;;5062114;28;19925;-87
2022/11/29 01:24:57;;;;;;;;;;;;;;;;;;5065261;28;19925;-89
2022/11/29 01:27:25;;;;;;;;;;;;;;;;;;5062461;28;19927;-88
2022/11/29 01:29:52;;;;;;;;;;;;;;;;;;5063275;28;20312;-89
2022/11/29 01:32:20;;;;;;;;;;;;;;;;;;5059193;28;19931;-90
2022/11/29 01:34:47;;;;;;;;;;;;;;;;;;5061454;28;20301;-90
2022/11/29 01:37:15;;;;;;;;;;;;;;;;;;5066641;28;19924;-90
2022/11/29 01:39:42;;;;;;;;;;;;;;;;;;5063493;28;19921;-89
2022/11/29 01:42:10;;;;;;;;;;;;;;;;;;5079964;28;19932;-90
2022/11/29 01:44:38;;;;;;;;;;;;;;;;;;5067644;28;20293;-88
2022/11/29 01:47:05;;;;;;;;;;;;;;;;;;5062727;28;19924;-90
2022/11/29 01:49:38;;;;;;;;;;;;;;;;;;5063217;28;19924;-90
2022/11/29 01:52:05;;;;;;;;;;;;;;;;;;5078509;28;19931;-89
2022/11/29 01:54:33;;;;;;;;;;;;;;;;;;5062341;28;20297;-90
2022/11/29 01:57:00;;;;;;;;;;;;;;;;;;5058722;28;19925;-90
2022/11/29 01:59:28;;;;;;;;;;;;;;;;;;5073830;28;20373;-89
2022/11/29 02:01:55;;;;;;;;;;;;;;;;;;5063425;28;19936;-89
2022/11/29 02:04:28;;;;;;;;;;;;;;;;;;5063972;28;19924;-89
2022/11/29 02:06:55;;;;;;;;;;;;;;;;;;5065999;28;19924;-89
2022/11/29 02:09:23;;;;;;;;;;;;;;;;;;5065785;28;19928;-89
2022/11/29 02:11:55;;;;;;;;;;;;;;;;;;5066940;28;20308;-89
2022/11/29 02:14:23;;;;;;;;;;;;;;;;;;5059938;28;19927;-90
2022/11/29 02:16:50;;;;;;;;;;;;;;;;;;5063445;28;19924;-89
2022/11/29 02:19:18;;;;;;;;;;;;;;;;;;5064075;28;19920;-88
2022/11/29 02:21:46;;;;;;;;;;;;;;;;;;5058847;28;20377;-88
2022/11/29 02:24:13;;;;;;;;;;;;;;;;;;5066023;28;19921;-90
2022/11/29 02:26:41;;;;;;;;;;;;;;;;;;5068559;28;19925;-90
2022/11/29 02:29:08;;;;;;;;;;;;;;;;;;5061474;28;19924;-88
2022/11/29 02:31:35;;;;;;;;;;;;;;;;;;5064046;28;19931;-90
2022/11/29 02:34:03;;;;;;;;;;;;;;;;;;5068178;28;19920;-89
2022/11/29 02:36:36;;;;;;;;;;;;;;;;;;5069716;28;19928;-90
2022/11/29 02:39:03;;;;;;;;;;;;;;;;;;5062844;28;20393;-89
2022/11/29 02:41:31;;;;;;;;;;;;;;;;;;5079309;28;19931;-88
2022/11/29 02:43:58;;;;;;;;;;;;;;;;;;5065539;28;19931;-90
2022/11/29 02:46:26;;;;;;;;;;;;;;;;;;5081441;28;19927;-82
2022/11/29 02:48:54;;;;;;;;;;;;;;;;;;5065274;28;19927;-82
2022/11/29 02:51:26;;;;;;;;;;;;;;;;;;5065781;28;19927;-82
2022/11/29 02:53:54;;;;;;;;;;;;;;;;;;5068588;28;19921;-83
2022/11/29 02:56:21;;;;;;;;;;;;;;;;;;5056135;28;20361;-81
2022/11/29 02:58:48;;;;;;;;;;;;;;;;;;5053460;28;20369;-83
2022/11/29 03:01:16;;;;;;;;;;;;;;;;;;5052521;28;19931;-83
2022/11/29 03:03:43;;;;;;;;;;;;;;;;;;5056983;28;19924;-82
2022/11/29 03:06:16;;;;;;;;;;;;;;;;;;5067030;28;19921;-81
2022/11/29 03:08:54;;;;;;;24.90;9.00;;;;;;;;;;5060112;28;19925;-83
2022/11/29 03:11:27;;;;;;;24.98;10.60;;;;;;;;;;5061233;28;20064;-82
2022/11/29 03:14:11;;;;;;;28.15;11.40;;;;;;;;;;5052096;28;20444;-81
2022/11/29 03:16:46;;;;;;;20.85;10.23;;;;;;;;;;5053812;28;20048;-82
2022/11/29 03:19:30;;;;;;;28.67;11.73;;;;;;;;;;5062966;28;20048;-81
2022/11/29 03:22:05;;;;;;;25.73;12.20;;;;;;;;;;5057439;28;20056;-82
2022/11/29 03:24:37;;;;;;;26.02;11.23;;;;;;;;;;5053577;28;20049;-82
2022/11/29 03:27:12;;;;;;;26.15;12.68;;;;;;;;;;5068380;28;20060;-82
2022/11/29 03:29:42;;;;;;;24.55;12.27;;;;;;;;;;5071445;28;20070;-83
2022/11/29 03:32:17;;;;;;;26.95;11.93;;;;;;;;;;5056877;28;20064;-82
2022/11/29 03:34:55;;;;;;;23.88;11.20;;;;;;;;;;5071408;28;20677;-82
2022/11/29 03:37:31;;;;;;;24.45;11.68;;;;;;;;;;5066841;28;20045;-83
2022/11/29 03:40:07;;;;;;;27.85;11.38;;;;;;;;;;5059635;28;20374;-82
2022/11/29 03:42:37;;;;;;;21.23;9.80;;;;;;;;;;5056351;28;20408;-82
2022/11/29 03:45:14;;;;;;;25.27;12.32;;;;;;;;;;5054320;28;20059;-82
2022/11/29 03:47:44;;;;;;;27.05;11.60;;;;;;;;;;5052026;28;20056;-82
2022/11/29 03:50:16;;;;;;;26.30;11.20;;;;;;;;;;5070268;28;20055;-83
2022/11/29 03:52:47;;;;;;;25.10;11.88;;;;;;;;;;5051420;28;20057;-82
2022/11/29 03:55:25;;;;;;;22.25;11.30;;;;;;;;;;5062792;28;20051;-83
2022/11/29 03:58:04;;;;;;;29.27;12.52;;;;;;;;;;5064415;28;20052;-82
2022/11/29 04:00:35;;;;;;;25.75;11.40;;;;;;;;;;5056739;28;20044;-83
2022/11/29 04:03:24;;;;;;;22.63;10.90;;;;;;;;;;5052400;28;20049;-82
2022/11/29 04:06:03;;;;;;;24.48;11.13;;;;;;;;;;5061796;28;20051;-82
2022/11/29 04:08:46;;;;;;;23.65;11.25;;;;;;;;;;5065288;28;20052;-84
2022/11/29 04:11:22;;;;;;;29.33;12.68;;;;;;;;;;5059574;28;20037;-87
2022/11/29 04:14:04;;;;;;;30.20;12.35;;;;;;;;;;5050442;28;20056;-84
2022/11/29 04:16:50;;;;;;;25.75;12.73;;;;;;;;;;5061781;28;20040;-83
2022/11/29 04:19:44;;;;;;;23.83;12.40;;;;;;;;;;5056297;28;20049;-82
2022/11/29 04:22:24;;;;;;;24.95;12.30;;;;;;;;;;5069413;28;20056;-81
2022/11/29 04:25:13;;;;;;;24.67;11.32;;;;;;;;;;5057982;28;20052;-83
2022/11/29 04:27:53;;;;;;;28.50;12.45;;;;;;;;;;5064991;28;20056;-83
2022/11/29 04:30:29;;;;;;;28.83;12.68;;;;;;;;;;5063940;28;20045;-83
2022/11/29 04:33:28;;;;;;;30.98;13.30;;;;;;;;;;5062005;28;20060;-85
2022/11/29 04:36:14;;;;;;;27.55;11.65;;;;;;;;;;5061354;28;20751;-82
2022/11/29 04:38:56;;;;;;;26.67;12.48;;;;;;;;;;5070757;28;20066;-80
2022/11/29 04:41:32;;;;;;;25.52;12.18;;;;;;;;;;5076780;28;20049;-81
2022/11/29 04:44:23;;;;;;;22.73;10.93;;;;;;;;;;5081546;28;20056;-81
2022/11/29 04:47:02;;;;;;;21.80;10.68;;;;;;;;;;5055206;28;20053;-81
2022/11/29 04:49:40;;;;;;;26.58;12.07;;;;;;;;;;5064239;28;20397;-84
2022/11/29 04:52:07;;;;;;;;;;;;;;;;;;5067249;28;20049;-81
2022/11/29 04:54:39;;;;;;;24.52;11.02;;;;;;;;;;5065164;28;19928;-82
2022/11/29 04:57:08;;;;;;;20.70;10.15;;;;;;;;;;5071164;28;20049;-83
2022/11/29 04:59:44;;;;;;;22.25;10.13;;;;;;;;;;5068572;28;20079;-83
2022/11/29 05:02:31;;;;;;;24.50;11.27;;;;;;;;;;5073071;28;20051;-84
2022/11/29 05:05:10;;;;;;;27.90;12.77;;;;;;;;;;5068268;28;20516;-82
2022/11/29 05:07:46;;;;;;;26.42;11.98;;;;;;;;;;5066774;28;20044;-81
2022/11/29 05:10:18;;;;;;;23.15;11.20;;;;;;;;;;5064962;28;20041;-82
2022/11/29 05:12:52;;;;;;;23.50;11.38;;;;;;;;;;5068565;28;20041;-81
2022/11/29 05:15:32;;;;;;;24.50;11.45;;;;;;;;;;5059278;28;20421;-82
2022/11/29 05:18:07;;;;;;;24.77;12.45;;;;;;;;;;5081627;28;20398;-83
2022/11/29 05:20:45;;;;;;;24.45;11.73;;;;;;;;;;5064466;28;20045;-81
2022/11/29 05:23:22;;;;;;;25.42;11.82;;;;;;;;;;5075072;28;20056;-82
2022/11/29 05:25:58;;;;;;;25.48;11.20;;;;;;;;;;5072544;28;20496;-81
2022/11/29 05:28:37;;;;;;;22.73;10.93;;;;;;;;;;5063950;28;20495;-82
2022/11/29 05:31:19;;;;;;;24.67;10.95;;;;;;;;;;5066017;28;20040;-82
2022/11/29 05:34:13;;;;;;;24.80;11.33;;;;;;;;;;5062040;28;20060;-81
2022/11/29 05:36:50;;;;;;;22.80;10.20;;;;;;;;;;5069008;28;20473;-81
2022/11/29 05:39:27;;;;;;;24.00;11.40;;;;;;;;;;5067519;28;20059;-82
2022/11/29 05:42:03;;;;;;;20.13;10.20;;;;;;;;;;5065162;28;20044;-82
2022/11/29 05:44:32;;;;;;;25.45;11.38;;;;;;;;;;5087446;28;20405;-81
2022/11/29 05:47:01;;;;;;;24.40;11.95;;;;;;;;;;5068105;28;20053;-81
2022/11/29 05:49:38;;;;;;;20.95;11.18;;;;;;;;;;5070347;28;20497;-82
2022/11/29 05:52:18;;;;;;;22.55;10.75;;;;;;;;;;5070993;28;20052;-82
2022/11/29 05:54:58;;;;;;;27.15;11.02;;;;;;;;;;5061365;28;20505;-81
2022/11/29 05:57:36;;;;;;;23.30;9.98;;;;;;;;;;5062687;28;20059;-82
2022/11/29 06:00:05;;;;;;;21.65;9.68;;;;;;;;;;5075859;28;20052;-81
2022/11/29 06:02:45;;;;;;;22.70;11.88;;;;;;;;;;5065564;28;20067;-81
2022/11/29 06:05:22;;;;;;;21.70;10.70;;;;;;;;;;5071564;28;20048;-81
2022/11/29 06:07:58;;;;;;;21.50;11.98;;;;;;;;;;5066274;28;20519;-83
2022/11/29 06:10:33;;;;;;;26.33;10.80;;;;;;;;;;5068382;28;20059;-80
2022/11/29 06:13:10;;;;;;;22.80;11.43;;;;;;;;;;5064078;28;20052;-82
2022/11/29 06:16:00;;;;;;;19.70;10.52;;;;;;;;;;5066094;28;20041;-81
2022/11/29 06:18:45;;;;;;;24.45;11.93;;;;;;;;;;5072143;28;20060;-82
2022/11/29 06:21:21;;;;;;;26.90;12.30;;;;;;;;;;5073048;28;20425;-81
2022/11/29 06:24:05;;;;;;;22.70;11.23;;;;;;;;;;5061106;28;20048;-81
2022/11/29 06:26:44;;;;;;;19.02;9.85;;;;;;;;;;5069492;28;20051;-81
2022/11/29 06:29:20;;;;;;;22.95;10.95;;;;;;;;;;5063660;28;20057;-81
2022/11/29 06:32:00;;;;;;;25.73;11.77;;;;;;;;;;5070648;28;20056;-82
2022/11/29 06:34:39;;;;;;;20.35;11.20;;;;;;;;;;5071410;28;20036;-81
2022/11/29 06:37:13;;;;;;;21.92;10.73;;;;;;;;;;5062753;28;20049;-81
2022/11/29 06:39:47;;;;;;;23.67;11.13;;;;;;;;;;5066300;28;20489;-81
2022/11/29 06:42:14;;;;;;;26.30;12.07;;;;;;;;;;5067216;28;20049;-82
2022/11/29 06:44:48;;;;;;;25.70;12.73;;;;;;;;;;5068049;28;20040;-82
2022/11/29 06:47:25;;;;;;;25.88;11.52;;;;;;;;;;5071616;28;20501;-81
2022/11/29 06:50:03;;;;;;;22.80;10.85;;;;;;;;;;5063233;28;20418;-82
2022/11/29 06:52:40;;;;;;;19.70;10.55;;;;;;;;;;5066849;28;20694;-81
2022/11/29 06:55:17;;;;;;;24.65;12.20;;;;;;;;;;5071187;28;20065;-81
2022/11/29 06:58:02;;;;;;;23.08;10.88;;;;;;;;;;5068597;28;20044;-82
2022/11/29 07:00:35;;;;;;;23.17;10.18;;;;;;;;;;5074828;28;20048;-81
2022/11/29 07:03:23;;;;;;;29.63;13.10;;;;;;;;;;5066030;28;20497;-81
2022/11/29 07:05:51;;;;;;;23.67;11.93;;;;;;;;;;5067819;28;20059;-82
2022/11/29 07:08:25;;;;;;;22.20;11.13;;;;;;;;;;5079567;28;20058;-81
2022/11/29 07:10:54;;;;;;;24.85;12.02;;;;;;;;;;5061753;28;20938;-81
2022/11/29 07:13:22;;;;;;;21.15;11.50;;;;;;;;;;5066665;28;20053;-81
2022/11/29 07:15:55;;;;;;;22.50;12.75;;;;;;;;;;5071652;28;20052;-81
2022/11/29 07:18:31;;;;;;;23.13;11.70;;;;;;;;;;5058540;28;20048;-82
2022/11/29 07:21:05;;;;;;;25.67;11.68;;;;;;;;;;5052598;28;20049;-81
2022/11/29 07:23:43;;;;;;;28.92;12.20;;;;;;;;;;5069802;28;20500;-82
2022/11/29 07:26:20;;;;;;;21.40;11.40;;;;;;;;;;5077907;28;20053;-81
2022/11/29 07:28:59;;;;;;;26.27;13.25;;;;;;;;;;5065169;28;20052;-83
2022/11/29 07:31:40;;;;;;;25.08;10.25;;;;;;;;;;5074151;28;20049;-81
2022/11/29 07:34:18;;;;;;;27.38;11.95;;;;;;;;;;5057055;28;20049;-82
2022/11/29 07:36:52;;;;;;;22.63;11.43;;;;;;;;;;5064271;28;20074;-81
2022/11/29 07:39:32;;;;;;;26.35;11.90;;;;;;;;;;5059216;28;20044;-82
2022/11/29 07:42:03;;;;;;;25.38;12.32;;;;;;;;;;5067145;28;20037;-81
2022/11/29 07:44:39;;;;;;;23.20;11.70;;;;;;;;;;5061610;28;20545;-82
2022/11/29 07:47:12;;;;;;;23.85;12.20;;;;;;;;;;5063057;28;20505;-81
2022/11/29 07:49:45;;;;;;;30.27;14.15;;;;;;;;;;5073931;28;20044;-83
2022/11/29 07:52:18;;;;;;;25.13;13.90;;;;;;;;;;5062008;28;20055;-82
2022/11/29 07:54:52;;;;;;;27.58;12.35;;;;;;;;;;5064489;28;20496;-82
2022/11/29 07:57:20;;;;;;;23.83;13.30;;;;;;;;;;5069130;28;20049;-83
2022/11/29 07:59:53;;;;;;;28.45;12.18;;;;;;;;;;5073666;28;20048;-82
2022/11/29 08:02:20;;;;;;;;;;;;;;;;;;5068770;28;20045;-81
2022/11/29 08:04:48;;;;;;;;;;;;;;;;;;5066705;28;19951;-81
2022/11/29 08:07:21;;;;;;;20.63;11.13;;;;;;;;;;5077052;28;19920;-82
2022/11/29 08:09:48;;;;;;;;;;;;;;;;;;5068060;28;20049;-82
2022/11/29 08:12:17;;;;;;;21.95;10.07;;;;;;;;;;5085466;28;19932;-82
2022/11/29 08:14:45;;;;;;;26.08;11.50;;;;;;;;;;5066470;28;20055;-81
2022/11/29 08:17:18;;;;;;;24.70;12.48;;;;;;;;;;5068280;28;20048;-82
2022/11/29 08:19:46;;;;;;;27.55;12.48;;;;;;;;;;5057596;28;20422;-82
2022/11/29 08:22:13;;;;;;;;;;;;;;;;;;5072856;28;20063;-82
2022/11/29 08:24:41;;;;;;;;;;;;;;;;;;5080445;28;19927;-82
2022/11/29 08:27:09;;;;;;;19.38;10.32;;;;;;;;;;5066177;28;20300;-81
2022/11/29 08:29:43;;;;;;;24.25;11.65;;;;;;;;;;5065026;28;20055;-81
2022/11/29 08:32:16;;;;;;;23.63;12.27;;;;;;;;;;5063441;28;20049;-82
2022/11/29 08:34:44;;;;;;;25.80;12.07;;;;;;;;;;5075849;28;20060;-81
2022/11/29 08:37:12;;;;;;;;;;;;;;;;;;5060350;28;20075;-82
2022/11/29 08:39:45;;;;;;;23.27;10.90;;;;;;;;;;5072299;28;19924;-82
2022/11/29 08:42:12;;;;;;;;;;;;;;;;;;5075294;28;20045;-81
2022/11/29 08:44:40;;;;;;;20.65;10.18;;;;;;;;;;5067212;28;21418;-83
2022/11/29 08:50:01;;;;;;;23.55;11.65;;;;;;;;;;5066961;28;20052;-81
2022/11/29 08:55:22;;;;;;;24.02;12.68;;;;;;;;;;5069259;28;20079;-84
2022/11/29 08:57:51;;;;;;;25.35;12.40;;;;;;;;;;5067224;28;20056;-81
2022/11/29 09:00:20;;;;;;;26.05;12.95;;;;;;;;;;5066969;28;20492;-81
2022/11/29 09:02:49;;;;;;;26.27;12.52;;;;;;;;;;5066910;28;20370;-81
2022/11/29 09:05:17;;;;;;;23.65;12.98;;;;;;;;;;5073257;28;20059;-82
2022/11/29 09:07:50;;;;;;;26.58;13.07;;;;;;;;;;5065683;28;20053;-82
2022/11/29 09:10:17;;;;;;;;;;;;;;;;;;5087669;28;20063;-81
2022/11/29 09:12:45;;;;;;;23.95;11.23;;;;;;;;;;5072254;28;19924;-82
2022/11/29 09:15:18;;;;;;;23.30;12.38;;;;;;;;;;5071641;28;20048;-82
2022/11/29 09:17:46;;;;;;;30.73;12.65;;;;;;;;;;5067864;28;20098;-83
2022/11/29 09:20:21;;;;;;;23.88;12.68;;;;;;;;;;5060835;28;20064;-82
2022/11/29 09:22:48;;;;;;;31.42;13.93;;;;;;;;;;5078156;28;20420;-83
2022/11/29 09:25:21;;;;;;;26.90;12.48;;;;;;;;;;5064832;28;20052;-81
2022/11/29 09:27:49;;;;;;;;;;;;;;;;;;5064589;28;20049;-82
2022/11/29 09:30:17;;;;;;;22.92;11.82;;;;;;;;;;5065053;28;19928;-81
2022/11/29 09:32:50;;;;;;;25.67;13.77;;;;;;;;;;5068437;28;20060;-83
2022/11/29 09:35:24;;;;;;;25.48;12.80;;;;;;;;;;5064655;28;20040;-83
2022/11/29 09:37:56;;;;;;;27.80;13.65;;;;;;;;;;5071696;28;20056;-81
2022/11/29 09:40:31;;;;;;;29.50;13.32;;;;;;;;;;5091305;28;20056;-83
2022/11/29 09:43:07;;;;;;;26.33;12.18;;;;;;;;;;5071706;28;20048;-82
2022/11/29 09:45:42;;;;;;;24.40;11.63;;;;;;;;;;5065382;28;20516;-81
2022/11/29 09:48:28;;;;;;;23.90;13.13;;;;;;;;;;5065176;28;20111;-82
2022/11/29 09:51:01;;;;;;;30.25;13.93;;;;;;;;;;5060738;28;20702;-81
2022/11/29 09:53:42;;;;;;;28.15;13.52;;;;;;;;;;5060592;28;20056;-82
2022/11/29 09:56:17;;;;;;;27.08;13.40;;;;;;;;;;5068654;28;20413;-82
2022/11/29 09:58:53;;;;;;;24.90;13.05;;;;;;;;;;5059698;28;20045;-84
2022/11/29 10:01:27;;;;;;;27.02;13.75;;;;;;;;;;5067163;28;20044;-82
2022/11/29 10:03:57;;;;;;;32.25;13.98;;;;;;;;;;5059663;28;20051;-83
2022/11/29 10:06:27;;;;;;;27.80;13.68;;;;;;;;;;5064020;28;20628;-82
2022/11/29 10:08:57;;;;;;;28.67;13.52;;;;;;;;;;5075352;28;20053;-82
2022/11/29 10:11:28;;;;;;;26.70;13.50;;;;;;;;;;5061407;28;20045;-83
2022/11/29 10:14:02;;;;;;;31.75;13.50;;;;;;;;;;5075507;28;20419;-82
2022/11/29 10:16:39;;;;;;;23.67;12.93;;;;;;;;;;5074750;28;20057;-82
2022/11/29 10:19:16;;;;;;;32.15;14.02;;;;;;;;;;5063670;28;20041;-81
2022/11/29 10:21:48;;;;;;;29.02;13.18;;;;;;;;;;5060995;28;20065;-82
2022/11/29 10:24:21;;;;;;;27.80;13.68;;;;;;;;;;5064970;28;20053;-82
2022/11/29 10:26:49;;;;;;;24.63;12.57;;;;;;;;;;5058281;28;20079;-82
2022/11/29 10:29:17;;;;;;;;;;;;;;;;;;5068322;28;20049;-82
2022/11/29 10:31:53;;;;;;;25.30;13.55;;;;;;;;;;5071997;28;19924;-81
2022/11/29 10:34:26;;;;;;;31.10;13.40;;;;;;;;;;5059390;28;20052;-81
2022/11/29 10:37:01;;;;;;;30.48;13.02;;;;;;;;;;5069948;28;20056;-84
2022/11/29 10:39:33;;;;;;;29.50;15.07;;;;;;;;;;5066628;28;20516;-82
2022/11/29 10:42:02;;;;;;;25.83;13.80;;;;;;;;;;5086150;28;20056;-81
2022/11/29 10:44:34;;;;;;;32.83;13.65;;;;;;;;;;5070410;28;20129;-81
2022/11/29 10:47:03;;;;;;;;;;;;;;;;;;5063752;28;20490;-81
2022/11/29 10:49:39;;;;;;;27.73;13.63;;;;;;;;;;5073374;28;19928;-83
2022/11/29 10:52:16;;;;;;;31.30;13.25;;;;;;;;;;5065577;28;20048;-83
2022/11/29 10:54:44;;;;;;;;;;;;;;;;;;5075014;28;20043;-83
2022/11/29 10:57:14;;;;;;;26.73;12.20;;;;;;;;;;5063180;28;20385;-81
2022/11/29 10:59:57;;;;;;;26.45;13.50;;;;;;;;;;5060343;28;20048;-82
2022/11/29 11:02:31;;;;;;;30.40;14.10;;;;;;;;;;5072269;28;20412;-82
2022/11/29 11:05:11;;;;;;;33.22;15.02;;;;;;;;;;5068481;28;20575;-82
2022/11/29 11:07:40;;;;;;;27.45;14.30;;;;;;;;;;5061770;28;20485;-81
2022/11/29 11:10:17;;;;;;;29.48;14.95;;;;;;;;;;5066108;28;20056;-85
2022/11/29 11:13:00;;;;;;;30.80;14.00;;;;;;;;;;5065693;28;20044;-82
2022/11/29 11:15:29;;;;;;;28.92;14.90;;;;;;;;;;5058813;28;20041;-82
2022/11/29 11:18:03;;;;;;;29.52;14.43;;;;;;;;;;5078612;28;20052;-83
2022/11/29 11:20:32;;;;;;;25.63;13.07;;;;;;;;;;5070588;28;20057;-82
2022/11/29 11:23:07;;;;;;;29.73;14.73;;;;;;;;;;5066108;28;20048;-82
2022/11/29 11:25:40;;;;;;;32.90;15.32;;;;;;;;;;5070348;28;20135;-82
2022/11/29 11:28:14;;;;;;;30.08;13.25;;;;;;;;;;5063024;28;20041;-83
2022/11/29 11:30:49;;;;;;;30.65;14.30;;;;;;;;;;5065160;28;20053;-82
2022/11/29 11:33:23;;;;;;;31.00;15.27;;;;;;;;;;5071458;28;20053;-82
2022/11/29 11:36:05;;;;;;;28.67;13.85;;;;;;;;;;5065755;28;20055;-81
2022/11/29 11:38:34;;;;;;;34.33;14.95;;;;;;;;;;5061760;28;20044;-82
2022/11/29 11:41:03;;;;;;;31.05;15.75;;;;;;;;;;5069881;28;20059;-84
2022/11/29 11:43:37;;;;;;;34.92;14.40;;;;;;;;;;5068240;28;20040;-83
2022/11/29 11:46:10;;;;;;;32.97;14.90;;;;;;;;;;5077052;28;20055;-83
2022/11/29 11:48:43;;;;;;;30.50;14.73;;;;;;;;;;5063225;28;20040;-83
2022/11/29 11:51:10;;;;;;;;;;;;;;;;;;5057761;28;20484;-82
2022/11/29 11:53:49;;;;;;;28.65;12.55;;;;;;;;;;5077929;28;20292;-83
2022/11/29 11:56:23;;;;;;;31.10;12.95;;;;;;;;;;5070667;28;20049;-81
2022/11/29 11:58:53;;;;;;;25.50;11.55;;;;;;;;;;5076488;28;20114;-84
2022/11/29 12:01:29;;;;;;;31.17;13.98;;;;;;;;;;5062970;28;20055;-81
2022/11/29 12:04:03;;;;;;;29.10;13.70;;;;;;;;;;5069590;28;20049;-82
2022/11/29 12:06:40;;;;;;;25.48;13.27;;;;;;;;;;5064628;28;20488;-82
2022/11/29 12:09:08;;;;;;;;;;;;;;;;;;5069613;28;20059;-84
2022/11/29 12:11:40;;;;;;;30.08;13.93;;;;;;;;;;5060303;28;19924;-82
2022/11/29 12:14:17;;;;;;;31.60;14.25;;;;;;;;;;5056890;28;20494;-82
2022/11/29 12:16:47;;;;;;;33.50;14.38;;;;;;;;;;5074363;28;20051;-82
2022/11/29 12:19:22;;;;;;;30.95;15.30;;;;;;;;;;5069253;28;20049;-82
2022/11/29 12:21:59;;;;;;;32.65;14.90;;;;;;;;;;5065354;28;20426;-82
2022/11/29 12:24:28;;;;;;;34.40;15.85;;;;;;;;;;5066975;28;20048;-84
2022/11/29 12:27:00;;;;;;;29.30;13.85;;;;;;;;;;5069987;28;20048;-82
2022/11/29 12:29:34;;;;;;;25.10;13.60;;;;;;;;;;5070113;28;20044;-82
2022/11/29 12:32:14;;;;;;;27.35;14.02;;;;;;;;;;5067087;28;20049;-82
2022/11/29 12:34:55;;;;;;;28.25;13.13;;;;;;;;;;5065290;28;20045;-82
2022/11/29 12:37:32;;;;;;;30.10;13.95;;;;;;;;;;5060419;28;20420;-83
2022/11/29 12:40:09;;;;;;;28.48;14.00;;;;;;;;;;5082458;28;20527;-82
2022/11/29 12:42:49;;;;;;;33.65;15.88;;;;;;;;;;5076462;28;20416;-83
2022/11/29 12:45:29;;;;;;;25.73;13.40;;;;;;;;;;5082680;28;20047;-82
2022/11/29 12:48:03;;;;;;;27.60;14.40;;;;;;;;;;5071438;28;20059;-81
2022/11/29 12:50:40;;;;;;;31.45;14.32;;;;;;;;;;5075079;28;20052;-82
2022/11/29 12:53:17;;;;;;;27.77;14.23;;;;;;;;;;5068820;28;20064;-84
2022/11/29 12:55:54;;;;;;;35.65;14.98;;;;;;;;;;5081319;28;20047;-82
2022/11/29 12:58:27;;;;;;;27.63;13.95;;;;;;;;;;5074237;28;20488;-82
2022/11/29 13:00:58;;;;;;;33.45;15.25;;;;;;;;;;5078122;28;20532;-82
2022/11/29 13:03:37;;;;;;;31.13;13.95;;;;;;;;;;5071052;28;20056;-83
2022/11/29 13:06:15;;;;;;;33.78;13.77;;;;;;;;;;5068089;28;20056;-82
2022/11/29 13:08:48;;;;;;;28.20;14.25;;;;;;;;;;5067036;28;20437;-85
2022/11/29 13:11:23;;;;;;;29.77;14.35;;;;;;;;;;5069578;28;20071;-83
2022/11/29 13:14:00;;;;;;;28.35;14.80;;;;;;;;;;5085337;28;20421;-82
2022/11/29 13:16:38;;;;;;;30.48;13.35;;;;;;;;;;5063056;28;20048;-82
2022/11/29 13:19:11;;;;;;;;;;;;;;;;;;5067001;28;20053;-83
2022/11/29 13:21:38;;;;;;;;;;;;;;;;;;5079377;28;19921;-81
2022/11/29 13:24:06;;;;;;;;;;;;;;;;;;5078263;28;19920;-82
2022/11/29 13:26:39;;;;;;;28.00;13.00;;;;;;;;;;5058280;28;19920;-81
2022/11/29 13:29:15;;;;;;;29.63;14.27;;;;;;;;;;5072967;28;20064;-82
2022/11/29 13:31:43;;;;;;;34.08;15.52;;;;;;;;;;5071282;28;20048;-82
2022/11/29 13:34:19;;;;;;;32.42;15.30;;;;;;;;;;5062643;28;20053;-82
2022/11/29 13:36:58;;;;;;;32.55;14.13;;;;;;;;;;5082374;28;20489;-82
2022/11/29 13:39:32;;;;;;;30.42;14.30;;;;;;;;;;5076024;28;20060;-82
2022/11/29 13:42:06;;;;;;;33.15;15.40;;;;;;;;;;5072467;28;20052;-82
2022/11/29 13:44:44;;;;;;;29.58;14.50;;;;;;;;;;5064539;28;20045;-83
2022/11/29 13:47:18;;;;;;;31.50;13.32;;;;;;;;;;5061161;28;20067;-82
2022/11/29 13:49:51;;;;;;;35.22;15.00;;;;;;;;;;5069079;28;20057;-82
2022/11/29 13:52:47;;;;;;;31.30;15.77;;;;;;;;;;5065453;28;20416;-81
2022/11/29 13:55:21;;;;;;;34.08;14.98;;;;;;;;;;5065789;28;20049;-81
2022/11/29 13:57:55;;;;;;;34.08;15.20;;;;;;;;;;5073076;28;20051;-82
2022/11/29 14:00:34;;;;;;;33.10;14.07;;;;;;;;;;5069526;28;20056;-82
2022/11/29 14:03:21;;;;;;;35.95;15.15;;;;;;;;;;5076045;28;20053;-82
2022/11/29 14:06:02;;;;;;;31.90;14.23;;;;;;;;;;5071089;28;20048;-81
2022/11/29 14:08:31;;;;;;;32.05;15.68;;;;;;;;;;5069878;28;20412;-82
2022/11/29 14:11:06;;;;;;;34.65;16.33;;;;;;;;;;5070978;28;20517;-83
2022/11/29 14:13:37;;;;;;;30.02;13.80;;;;;;;;;;5056923;28;20068;-82
2022/11/29 14:16:17;;;;;;;33.80;14.52;;;;;;;;;;5063462;28;20480;-84
2022/11/29 14:19:03;;;;;;;34.47;16.30;;;;;;;;;;5068756;28;20043;-84
2022/11/29 14:21:50;;;;;;;35.47;14.90;;;;;;;;;;5059195;28;20048;-83
2022/11/29 14:24:39;;;;;;;32.40;15.65;;;;;;;;;;5073032;28;20067;-81
2022/11/29 14:27:30;;;;;;;27.98;12.30;;;;;;;;;;5075224;28;20043;-83
2022/11/29 14:29:58;;;;;;;32.17;14.02;;;;;;;;;;5070457;28;20521;-82
2022/11/29 14:32:25;;;;;;;;;;;;;;;;;;5079978;28;20059;-81
2022/11/29 14:35:02;;;;;;;29.50;13.73;;;;;;;;;;5069859;28;20295;-83
2022/11/29 14:37:50;;;;;;;46.38;21.95;;;;;;;;;;5063113;28;20425;-82
2022/11/29 14:40:21;;;;;;;48.83;24.13;;;;;;;;;;5077637;28;20413;-82
2022/11/29 14:42:51;;;;;;;51.93;24.93;;;;;;;;;;5065791;28;20453;-82
2022/11/29 14:45:26;;;;;;;53.50;25.60;;;;;;;;;;5064836;28;20429;-82
2022/11/29 14:47:54;;;;;;;53.92;26.48;;;;;;;;;;5060571;28;20454;-82
2022/11/29 14:50:32;;;;;;;56.55;28.15;;;;;;;;;;5063701;28;20416;-81
2022/11/29 14:53:00;;;;;;;59.42;28.23;;;;;;;;;;5061264;28;20869;-81
2022/11/29 14:55:29;;;;;;;54.45;27.25;;;;;;;;;;5080829;28;20452;-83
2022/11/29 14:58:12;;;;;;;56.47;27.45;;;;;;;;;;5065207;28;20429;-83
2022/11/29 15:00:51;;;;;;;53.83;27.33;;;;;;;;;;5067283;28;20411;-82
2022/11/29 15:03:20;;;;;;;61.80;28.52;;;;;;;;;;5061467;28;20886;-81
2022/11/29 15:05:58;;;;;;;62.13;29.35;;;;;;;;;;5061035;28;20933;-81
2022/11/29 15:08:33;;;;;;;57.85;28.52;;;;;;;;;;5067771;28;20418;-83
2022/11/29 15:11:02;;;;;;;61.92;28.70;;;;;;;;;;5073619;28;20416;-82
2022/11/29 15:13:32;;;;;;;59.13;28.75;;;;;;;;;;5063781;28;20476;-81
2022/11/29 15:16:19;;;;;;;60.70;28.60;;;;;;;;;;5058517;28;20432;-83
2022/11/29 15:19:05;;;;;;;58.20;28.60;;;;;;;;;;5061030;28;20431;-82
2022/11/29 15:21:44;;;;;;;61.78;29.38;;;;;;;;;;5064825;28;20429;-81
2022/11/29 15:24:13;;;;;;;62.20;29.92;;;;;;;;;;5076087;28;20428;-81
2022/11/29 15:26:54;;;;;;;65.57;29.90;;;;;;;;;;5074219;28;20812;-84
2022/11/29 15:29:22;;;;;;;62.55;29.42;;;;;;;;;;5063461;28;20408;-82
2022/11/29 15:31:56;;;;;;;62.95;30.15;;;;;;;;;;5066714;28;20433;-82